sensor_id;sensor_type;location;lat;lon;timestamp;pressure;altitude;pressure_sealevel;temperature;humidity
46846;BME280;33947;46.804;134.252;2024-02-16T00:01:59;101782.13;;;-19.23;55.94
46846;BME280;33947;46.804;134.252;2024-02-16T00:05:07;101774.28;;;-19.34;55.86
46846;BME280;33947;46.804;134.252;2024-02-16T00:08:18;101777.94;;;-18.75;55.80
46846;BME280;33947;46.804;134.252;2024-02-16T00:11:26;101779.66;;;-18.66;54.68
46846;BME280;33947;46.804;134.252;2024-02-16T00:14:51;101777.28;;;-18.24;54.40
46846;BME280;33947;46.804;134.252;2024-02-16T00:18:01;101782.53;;;-18.22;53.00
46846;BME280;33947;46.804;134.252;2024-02-16T00:21:09;101779.22;;;-17.96;53.21
46846;BME280;33947;46.804;134.252;2024-02-16T00:24:16;101779.22;;;-17.29;52.69
46846;BME280;33947;46.804;134.252;2024-02-16T00:27:23;101778.56;;;-17.02;51.77
46846;BME280;33947;46.804;134.252;2024-02-16T00:30:31;101780.47;;;-16.73;52.28
46846;BME280;33947;46.804;134.252;2024-02-16T00:33:40;101781.97;;;-16.04;52.63
46846;BME280;33947;46.804;134.252;2024-02-16T00:36:47;101781.91;;;-15.13;51.53
46846;BME280;33947;46.804;134.252;2024-02-16T00:39:54;101777.88;;;-14.34;50.38
46846;BME280;33947;46.804;134.252;2024-02-16T00:43:01;101773.16;;;-13.81;50.15
46846;BME280;33947;46.804;134.252;2024-02-16T00:46:08;101776.69;;;-13.39;48.55
46846;BME280;33947;46.804;134.252;2024-02-16T00:49:17;101767.50;;;-12.75;48.40
46846;BME280;33947;46.804;134.252;2024-02-16T00:52:24;101769.69;;;-12.06;47.02
46846;BME280;33947;46.804;134.252;2024-02-16T00:55:31;101747.53;;;-10.92;45.19
46846;BME280;33947;46.804;134.252;2024-02-16T00:58:40;101760.19;;;-9.52;45.33
46846;BME280;33947;46.804;134.252;2024-02-16T01:01:56;101762.22;;;-9.60;43.78
46846;BME280;33947;46.804;134.252;2024-02-16T01:05:06;101760.38;;;-8.99;39.85
46846;BME280;33947;46.804;134.252;2024-02-16T01:08:15;101769.97;;;-8.18;40.31
46846;BME280;33947;46.804;134.252;2024-02-16T01:11:22;101764.16;;;-7.60;38.09
46846;BME280;33947;46.804;134.252;2024-02-16T01:14:30;101762.13;;;-7.79;36.72
46846;BME280;33947;46.804;134.252;2024-02-16T01:17:37;101765.53;;;-7.23;36.39
46846;BME280;33947;46.804;134.252;2024-02-16T01:21:00;101766.13;;;-6.84;36.07
46846;BME280;33947;46.804;134.252;2024-02-16T01:24:09;101767.25;;;-7.24;33.40
46846;BME280;33947;46.804;134.252;2024-02-16T01:27:16;101767.59;;;-6.74;33.88
46846;BME280;33947;46.804;134.252;2024-02-16T01:30:23;101762.56;;;-6.86;33.63
46846;BME280;33947;46.804;134.252;2024-02-16T01:33:30;101763.84;;;-6.79;32.44
46846;BME280;33947;46.804;134.252;2024-02-16T01:36:41;101756.63;;;-6.40;33.05
46846;BME280;33947;46.804;134.252;2024-02-16T01:39:48;101756.16;;;-6.33;32.52
46846;BME280;33947;46.804;134.252;2024-02-16T01:42:55;101747.63;;;-6.00;32.11
46846;BME280;33947;46.804;134.252;2024-02-16T01:46:02;101746.56;;;-5.72;32.03
46846;BME280;33947;46.804;134.252;2024-02-16T01:49:10;101749.34;;;-6.01;31.37
46846;BME280;33947;46.804;134.252;2024-02-16T01:52:23;101745.63;;;-6.36;30.49
46846;BME280;33947;46.804;134.252;2024-02-16T01:55:30;101739.78;;;-7.22;31.60
46846;BME280;33947;46.804;134.252;2024-02-16T01:58:37;101742.56;;;-6.89;30.51
46846;BME280;33947;46.804;134.252;2024-02-16T02:01:45;101739.56;;;-7.40;31.97
46846;BME280;33947;46.804;134.252;2024-02-16T02:05:23;101740.78;;;-6.90;31.18
46846;BME280;33947;46.804;134.252;2024-02-16T02:08:33;101735.97;;;-6.99;30.91
46846;BME280;33947;46.804;134.252;2024-02-16T02:11:41;101734.53;;;-7.08;30.36
46846;BME280;33947;46.804;134.252;2024-02-16T02:14:47;101732.34;;;-7.59;30.83
46846;BME280;33947;46.804;134.252;2024-02-16T02:17:54;101718.59;;;-7.01;31.41
46846;BME280;33947;46.804;134.252;2024-02-16T02:21:03;101718.41;;;-6.59;31.72
46846;BME280;33947;46.804;134.252;2024-02-16T02:24:12;101722.22;;;-6.98;30.91
46846;BME280;33947;46.804;134.252;2024-02-16T02:27:19;101722.75;;;-7.47;31.31
46846;BME280;33947;46.804;134.252;2024-02-16T02:30:26;101718.09;;;-6.94;31.81
46846;BME280;33947;46.804;134.252;2024-02-16T02:33:33;101721.50;;;-6.95;31.72
46846;BME280;33947;46.804;134.252;2024-02-16T02:36:41;101709.91;;;-6.72;32.13
46846;BME280;33947;46.804;134.252;2024-02-16T02:39:52;101706.56;;;-7.29;32.21
46846;BME280;33947;46.804;134.252;2024-02-16T02:43:10;101706.53;;;-7.44;33.88
46846;BME280;33947;46.804;134.252;2024-02-16T02:46:23;101693.09;;;-7.38;33.32
46846;BME280;33947;46.804;134.252;2024-02-16T02:49:32;101697.84;;;-7.60;33.59
46846;BME280;33947;46.804;134.252;2024-02-16T02:52:40;101693.16;;;-7.94;34.01
46846;BME280;33947;46.804;134.252;2024-02-16T02:55:52;101684.16;;;-7.72;34.22
46846;BME280;33947;46.804;134.252;2024-02-16T02:58:59;101679.19;;;-8.51;34.92
46846;BME280;33947;46.804;134.252;2024-02-16T03:02:06;101684.56;;;-8.75;35.34
46846;BME280;33947;46.804;134.252;2024-02-16T03:05:13;101555.91;;;-9.63;35.84
46846;BME280;33947;46.804;134.252;2024-02-16T03:08:20;101672.00;;;-9.35;36.45
46846;BME280;33947;46.804;134.252;2024-02-16T03:11:28;101676.66;;;-9.04;36.64
46846;BME280;33947;46.804;134.252;2024-02-16T03:14:37;101673.44;;;-8.61;37.14
46846;BME280;33947;46.804;134.252;2024-02-16T03:17:44;101659.34;;;-8.66;36.52
46846;BME280;33947;46.804;134.252;2024-02-16T03:21:05;101663.22;;;-8.73;37.29
46846;BME280;33947;46.804;134.252;2024-02-16T03:24:12;101657.94;;;-9.01;37.25
46846;BME280;33947;46.804;134.252;2024-02-16T03:27:21;101650.41;;;-8.85;38.62
46846;BME280;33947;46.804;134.252;2024-02-16T03:30:28;101640.72;;;-8.75;38.79
46846;BME280;33947;46.804;134.252;2024-02-16T03:33:35;101641.41;;;-9.17;38.24
46846;BME280;33947;46.804;134.252;2024-02-16T03:36:45;101650.53;;;-9.22;38.63
46846;BME280;33947;46.804;134.252;2024-02-16T03:39:53;101646.56;;;-9.17;39.32
46846;BME280;33947;46.804;134.252;2024-02-16T03:43:01;101639.06;;;-9.14;39.31
46846;BME280;33947;46.804;134.252;2024-02-16T03:46:09;101627.97;;;-8.86;38.21
46846;BME280;33947;46.804;134.252;2024-02-16T03:49:17;101615.34;;;-9.21;39.41
46846;BME280;33947;46.804;134.252;2024-02-16T03:52:24;101591.34;;;-9.07;39.47
46846;BME280;33947;46.804;134.252;2024-02-16T03:55:32;101596.84;;;-9.02;40.46
46846;BME280;33947;46.804;134.252;2024-02-16T03:58:46;101600.41;;;-9.14;40.78
46846;BME280;33947;46.804;134.252;2024-02-16T04:01:53;101591.88;;;-8.86;39.53
46846;BME280;33947;46.804;134.252;2024-02-16T04:05:01;101595.84;;;-8.91;40.01
46846;BME280;33947;46.804;134.252;2024-02-16T04:08:08;101596.00;;;-8.34;40.20
46846;BME280;33947;46.804;134.252;2024-02-16T04:11:16;101591.44;;;-7.96;38.94
46846;BME280;33947;46.804;134.252;2024-02-16T04:14:25;101573.47;;;-8.08;39.64
46846;BME280;33947;46.804;134.252;2024-02-16T04:17:32;101575.88;;;-7.83;39.31
46846;BME280;33947;46.804;134.252;2024-02-16T04:20:39;101574.16;;;-7.38;38.58
46846;BME280;33947;46.804;134.252;2024-02-16T04:23:46;101577.19;;;-7.46;38.54
46846;BME280;33947;46.804;134.252;2024-02-16T04:26:54;101575.94;;;-7.37;38.81
46846;BME280;33947;46.804;134.252;2024-02-16T04:30:06;101545.22;;;-7.91;39.90
46846;BME280;33947;46.804;134.252;2024-02-16T04:33:15;101566.91;;;-8.03;40.37
46846;BME280;33947;46.804;134.252;2024-02-16T04:36:22;101559.34;;;-7.71;40.99
46846;BME280;33947;46.804;134.252;2024-02-16T04:39:29;101557.41;;;-7.60;40.59
46846;BME280;33947;46.804;134.252;2024-02-16T04:42:36;101547.16;;;-7.44;39.67
46846;BME280;33947;46.804;134.252;2024-02-16T04:45:44;101543.94;;;-7.40;38.35
46846;BME280;33947;46.804;134.252;2024-02-16T04:48:52;101493.47;;;-7.78;38.81
46846;BME280;33947;46.804;134.252;2024-02-16T04:51:59;101543.84;;;-7.41;39.29
46846;BME280;33947;46.804;134.252;2024-02-16T04:55:07;101542.78;;;-7.45;38.76
46846;BME280;33947;46.804;134.252;2024-02-16T04:58:14;101527.91;;;-7.34;39.37
46846;BME280;33947;46.804;134.252;2024-02-16T05:01:23;101522.44;;;-7.38;39.66
46846;BME280;33947;46.804;134.252;2024-02-16T05:04:30;101531.19;;;-7.51;38.98
46846;BME280;33947;46.804;134.252;2024-02-16T05:07:36;101526.06;;;-7.80;40.67
46846;BME280;33947;46.804;134.252;2024-02-16T05:10:43;101524.75;;;-7.73;40.67
46846;BME280;33947;46.804;134.252;2024-02-16T05:13:50;101500.53;;;-8.19;41.02
46846;BME280;33947;46.804;134.252;2024-02-16T05:17:06;101507.16;;;-7.94;41.27
46846;BME280;33947;46.804;134.252;2024-02-16T05:20:13;101502.28;;;-8.33;41.12
46846;BME280;33947;46.804;134.252;2024-02-16T05:23:22;101495.03;;;-8.38;40.44
46846;BME280;33947;46.804;134.252;2024-02-16T05:26:29;101511.09;;;-8.29;41.48
46846;BME280;33947;46.804;134.252;2024-02-16T05:29:36;101506.88;;;-8.14;40.87
46846;BME280;33947;46.804;134.252;2024-02-16T05:32:46;101489.69;;;-8.83;41.67
46846;BME280;33947;46.804;134.252;2024-02-16T05:35:56;101492.88;;;-8.46;41.43
46846;BME280;33947;46.804;134.252;2024-02-16T05:39:03;101490.78;;;-8.23;41.37
46846;BME280;33947;46.804;134.252;2024-02-16T05:42:25;101493.50;;;-8.21;42.26
46846;BME280;33947;46.804;134.252;2024-02-16T05:45:45;101492.81;;;-7.89;41.93
46846;BME280;33947;46.804;134.252;2024-02-16T05:48:55;101492.13;;;-7.86;41.32
46846;BME280;33947;46.804;134.252;2024-02-16T05:52:02;101490.72;;;-7.66;41.49
46846;BME280;33947;46.804;134.252;2024-02-16T05:55:25;101497.31;;;-7.86;41.06
46846;BME280;33947;46.804;134.252;2024-02-16T05:58:32;101498.06;;;-8.02;40.94
46846;BME280;33947;46.804;134.252;2024-02-16T06:01:40;101465.97;;;-8.21;41.92
46846;BME280;33947;46.804;134.252;2024-02-16T06:04:50;101491.66;;;-8.37;42.00
46846;BME280;33947;46.804;134.252;2024-02-16T06:07:57;101483.03;;;-7.94;41.80
46846;BME280;33947;46.804;134.252;2024-02-16T06:11:07;101486.25;;;-7.84;40.48
46846;BME280;33947;46.804;134.252;2024-02-16T06:14:14;101490.09;;;-7.47;40.57
46846;BME280;33947;46.804;134.252;2024-02-16T06:17:23;101489.63;;;-8.00;41.36
46846;BME280;33947;46.804;134.252;2024-02-16T06:20:32;101485.00;;;-7.90;41.81
46846;BME280;33947;46.804;134.252;2024-02-16T06:23:40;101477.88;;;-7.64;41.49
46846;BME280;33947;46.804;134.252;2024-02-16T06:26:47;101473.75;;;-8.06;42.05
46846;BME280;33947;46.804;134.252;2024-02-16T06:30:00;101450.09;;;-7.99;42.62
46846;BME280;33947;46.804;134.252;2024-02-16T06:33:08;101465.19;;;-8.05;42.50
46846;BME280;33947;46.804;134.252;2024-02-16T06:36:17;101447.06;;;-7.61;41.78
46846;BME280;33947;46.804;134.252;2024-02-16T06:39:24;101429.97;;;-7.28;41.64
46846;BME280;33947;46.804;134.252;2024-02-16T06:42:31;101428.97;;;-6.98;39.94
46846;BME280;33947;46.804;134.252;2024-02-16T06:45:38;101447.88;;;-7.16;41.18
46846;BME280;33947;46.804;134.252;2024-02-16T06:48:46;101424.41;;;-7.04;40.88
46846;BME280;33947;46.804;134.252;2024-02-16T06:51:54;101442.00;;;-7.28;40.90
46846;BME280;33947;46.804;134.252;2024-02-16T06:55:01;101429.53;;;-7.35;41.81
46846;BME280;33947;46.804;134.252;2024-02-16T06:58:08;101430.50;;;-7.18;41.71
46846;BME280;33947;46.804;134.252;2024-02-16T07:01:16;101410.03;;;-7.45;41.11
46846;BME280;33947;46.804;134.252;2024-02-16T07:04:23;101429.50;;;-7.52;41.33
46846;BME280;33947;46.804;134.252;2024-02-16T07:07:32;101424.25;;;-7.99;42.43
46846;BME280;33947;46.804;134.252;2024-02-16T07:10:40;101421.38;;;-8.03;42.09
46846;BME280;33947;46.804;134.252;2024-02-16T07:13:47;101410.78;;;-7.93;41.68
46846;BME280;33947;46.804;134.252;2024-02-16T07:16:54;101419.13;;;-8.27;41.91
46846;BME280;33947;46.804;134.252;2024-02-16T07:20:02;101416.50;;;-8.42;43.28
46846;BME280;33947;46.804;134.252;2024-02-16T07:23:11;101414.75;;;-8.28;43.23
46846;BME280;33947;46.804;134.252;2024-02-16T07:26:21;101414.88;;;-8.27;42.25
46846;BME280;33947;46.804;134.252;2024-02-16T07:29:28;101421.66;;;-8.57;43.01
46846;BME280;33947;46.804;134.252;2024-02-16T07:32:35;101401.19;;;-8.82;43.79
46846;BME280;33947;46.804;134.252;2024-02-16T07:35:43;101415.22;;;-9.06;44.06
46846;BME280;33947;46.804;134.252;2024-02-16T07:38:51;101411.19;;;-9.02;44.38
46846;BME280;33947;46.804;134.252;2024-02-16T07:41:59;101407.66;;;-9.31;45.83
46846;BME280;33947;46.804;134.252;2024-02-16T07:45:07;101408.53;;;-9.17;44.78
46846;BME280;33947;46.804;134.252;2024-02-16T07:48:15;101399.06;;;-9.03;44.54
46846;BME280;33947;46.804;134.252;2024-02-16T07:51:25;101396.44;;;-8.90;44.38
46846;BME280;33947;46.804;134.252;2024-02-16T07:54:34;101394.66;;;-9.19;44.88
46846;BME280;33947;46.804;134.252;2024-02-16T07:57:41;101383.06;;;-9.39;45.83
46846;BME280;33947;46.804;134.252;2024-02-16T08:00:49;101374.81;;;-9.89;45.75
46846;BME280;33947;46.804;134.252;2024-02-16T08:03:57;101370.63;;;-9.74;46.39
46846;BME280;33947;46.804;134.252;2024-02-16T08:07:08;101378.94;;;-9.91;46.64
46846;BME280;33947;46.804;134.252;2024-02-16T08:10:19;101364.88;;;-9.96;45.82
46846;BME280;33947;46.804;134.252;2024-02-16T08:13:27;101366.84;;;-9.92;45.99
46846;BME280;33947;46.804;134.252;2024-02-16T08:16:34;101373.09;;;-10.02;45.95
46846;BME280;33947;46.804;134.252;2024-02-16T08:19:41;101355.88;;;-10.03;47.10
46846;BME280;33947;46.804;134.252;2024-02-16T08:22:48;101362.50;;;-10.07;46.79
46846;BME280;33947;46.804;134.252;2024-02-16T08:26:00;101343.38;;;-10.10;46.16
46846;BME280;33947;46.804;134.252;2024-02-16T08:29:07;101336.94;;;-9.90;46.72
46846;BME280;33947;46.804;134.252;2024-02-16T08:32:15;101325.78;;;-10.04;46.23
46846;BME280;33947;46.804;134.252;2024-02-16T08:35:22;101335.69;;;-9.97;45.89
46846;BME280;33947;46.804;134.252;2024-02-16T08:38:29;101316.06;;;-9.95;46.14
46846;BME280;33947;46.804;134.252;2024-02-16T08:41:39;101325.78;;;-9.64;44.41
46846;BME280;33947;46.804;134.252;2024-02-16T08:44:46;101305.28;;;-9.89;44.03
46846;BME280;33947;46.804;134.252;2024-02-16T08:47:54;101319.91;;;-10.02;44.56
46846;BME280;33947;46.804;134.252;2024-02-16T08:51:01;101317.16;;;-10.05;45.11
46846;BME280;33947;46.804;134.252;2024-02-16T08:54:10;101324.84;;;-10.32;45.55
46846;BME280;33947;46.804;134.252;2024-02-16T08:57:20;101305.84;;;-10.34;45.56
46846;BME280;33947;46.804;134.252;2024-02-16T09:00:27;101282.59;;;-10.74;46.13
46846;BME280;33947;46.804;134.252;2024-02-16T09:03:34;101299.50;;;-10.39;46.36
46846;BME280;33947;46.804;134.252;2024-02-16T09:06:43;101304.50;;;-10.67;46.11
46846;BME280;33947;46.804;134.252;2024-02-16T09:09:50;101305.00;;;-10.60;46.64
46846;BME280;33947;46.804;134.252;2024-02-16T09:12:59;101303.19;;;-10.35;46.13
46846;BME280;33947;46.804;134.252;2024-02-16T09:16:07;101301.75;;;-10.57;46.16
46846;BME280;33947;46.804;134.252;2024-02-16T09:19:13;101308.53;;;-10.71;46.47
46846;BME280;33947;46.804;134.252;2024-02-16T09:22:20;101291.28;;;-11.11;47.30
46846;BME280;33947;46.804;134.252;2024-02-16T09:25:40;101312.06;;;-10.82;46.92
46846;BME280;33947;46.804;134.252;2024-02-16T09:28:50;101297.59;;;-10.94;46.88
46846;BME280;33947;46.804;134.252;2024-02-16T09:31:58;101295.63;;;-10.84;47.12
46846;BME280;33947;46.804;134.252;2024-02-16T09:35:06;101300.03;;;-10.95;46.91
46846;BME280;33947;46.804;134.252;2024-02-16T09:38:15;101299.84;;;-10.98;47.32
46846;BME280;33947;46.804;134.252;2024-02-16T09:41:22;101302.78;;;-11.06;47.80
46846;BME280;33947;46.804;134.252;2024-02-16T09:44:30;101302.31;;;-11.00;47.71
46846;BME280;33947;46.804;134.252;2024-02-16T09:47:44;101302.97;;;-11.03;47.30
46846;BME280;33947;46.804;134.252;2024-02-16T09:51:05;101306.13;;;-11.07;47.76
46846;BME280;33947;46.804;134.252;2024-02-16T09:54:13;101305.59;;;-11.14;48.01
46846;BME280;33947;46.804;134.252;2024-02-16T09:57:20;101294.69;;;-11.24;48.03
46846;BME280;33947;46.804;134.252;2024-02-16T10:00:29;101290.69;;;-11.32;48.14
46846;BME280;33947;46.804;134.252;2024-02-16T10:03:36;101305.28;;;-11.19;47.79
46846;BME280;33947;46.804;134.252;2024-02-16T10:06:47;101300.84;;;-11.34;48.51
46846;BME280;33947;46.804;134.252;2024-02-16T10:09:55;101301.19;;;-11.54;48.83
46846;BME280;33947;46.804;134.252;2024-02-16T10:13:04;101299.50;;;-11.54;49.57
46846;BME280;33947;46.804;134.252;2024-02-16T10:16:14;101292.06;;;-11.74;49.96
46846;BME280;33947;46.804;134.252;2024-02-16T10:19:21;101306.56;;;-11.75;50.27
46846;BME280;33947;46.804;134.252;2024-02-16T10:22:29;101304.22;;;-11.84;50.29
46846;BME280;33947;46.804;134.252;2024-02-16T10:25:52;101307.03;;;-11.93;50.73
46846;BME280;33947;46.804;134.252;2024-02-16T10:29:00;101310.47;;;-11.92;51.01
46846;BME280;33947;46.804;134.252;2024-02-16T10:32:22;101310.47;;;-11.68;50.11
46846;BME280;33947;46.804;134.252;2024-02-16T10:35:34;101312.81;;;-11.71;49.83
46846;BME280;33947;46.804;134.252;2024-02-16T10:38:43;101313.84;;;-11.81;50.08
46846;BME280;33947;46.804;134.252;2024-02-16T10:41:52;101290.50;;;-11.84;49.55
46846;BME280;33947;46.804;134.252;2024-02-16T10:45:01;101312.53;;;-11.51;49.36
46846;BME280;33947;46.804;134.252;2024-02-16T10:48:12;101310.19;;;-11.48;48.35
46846;BME280;33947;46.804;134.252;2024-02-16T10:51:27;101277.09;;;-11.68;48.76
46846;BME280;33947;46.804;134.252;2024-02-16T10:54:39;101309.91;;;-11.64;49.55
46846;BME280;33947;46.804;134.252;2024-02-16T10:57:48;101310.25;;;-11.71;49.82
46846;BME280;33947;46.804;134.252;2024-02-16T11:00:58;101310.13;;;-11.73;49.88
46846;BME280;33947;46.804;134.252;2024-02-16T11:04:18;101284.69;;;-11.82;49.94
46846;BME280;33947;46.804;134.252;2024-02-16T11:07:26;101300.66;;;-11.74;50.11
46846;BME280;33947;46.804;134.252;2024-02-16T11:10:33;101299.19;;;-11.58;49.96
46846;BME280;33947;46.804;134.252;2024-02-16T11:13:43;101297.41;;;-11.71;50.35
46846;BME280;33947;46.804;134.252;2024-02-16T11:16:53;101307.06;;;-11.43;49.54
46846;BME280;33947;46.804;134.252;2024-02-16T11:20:02;101300.41;;;-11.65;49.60
46846;BME280;33947;46.804;134.252;2024-02-16T11:23:12;101266.63;;;-11.71;49.77
46846;BME280;33947;46.804;134.252;2024-02-16T11:26:23;101293.72;;;-11.63;49.39
46846;BME280;33947;46.804;134.252;2024-02-16T11:29:34;101305.00;;;-11.73;50.24
46846;BME280;33947;46.804;134.252;2024-02-16T11:32:46;101294.66;;;-11.86;50.33
46846;BME280;33947;46.804;134.252;2024-02-16T11:35:57;101306.56;;;-11.87;50.80
46846;BME280;33947;46.804;134.252;2024-02-16T11:39:12;101303.34;;;-11.96;51.20
46846;BME280;33947;46.804;134.252;2024-02-16T11:42:21;101316.50;;;-12.85;52.31
46846;BME280;33947;46.804;134.252;2024-02-16T11:45:34;101308.59;;;-13.23;54.27
46846;BME280;33947;46.804;134.252;2024-02-16T11:48:44;101312.56;;;-13.71;55.15
46846;BME280;33947;46.804;134.252;2024-02-16T11:51:54;101322.09;;;-13.58;55.65
46846;BME280;33947;46.804;134.252;2024-02-16T11:55:02;101297.56;;;-12.75;53.66
46846;BME280;33947;46.804;134.252;2024-02-16T11:58:10;101313.47;;;-12.45;52.70
46846;BME280;33947;46.804;134.252;2024-02-16T12:01:18;101317.16;;;-12.18;52.04
46846;BME280;33947;46.804;134.252;2024-02-16T12:04:27;101297.84;;;-12.49;51.90
46846;BME280;33947;46.804;134.252;2024-02-16T12:07:42;101313.59;;;-12.44;52.59
46846;BME280;33947;46.804;134.252;2024-02-16T12:10:50;101310.00;;;-12.58;52.62
46846;BME280;33947;46.804;134.252;2024-02-16T12:13:57;101317.81;;;-12.44;52.44
46846;BME280;33947;46.804;134.252;2024-02-16T12:17:07;101306.59;;;-12.11;51.45
46846;BME280;33947;46.804;134.252;2024-02-16T12:20:14;101314.19;;;-12.00;50.55
46846;BME280;33947;46.804;134.252;2024-02-16T12:23:24;101309.69;;;-12.03;51.05
46846;BME280;33947;46.804;134.252;2024-02-16T12:26:31;101313.41;;;-11.87;49.47
46846;BME280;33947;46.804;134.252;2024-02-16T12:29:38;101315.94;;;-12.23;50.59
46846;BME280;33947;46.804;134.252;2024-02-16T12:32:45;101317.06;;;-12.20;50.05
46846;BME280;33947;46.804;134.252;2024-02-16T12:35:53;101312.94;;;-12.17;50.03
46846;BME280;33947;46.804;134.252;2024-02-16T12:39:02;101307.56;;;-11.85;49.12
46846;BME280;33947;46.804;134.252;2024-02-16T12:42:10;101311.28;;;-12.75;51.05
46846;BME280;33947;46.804;134.252;2024-02-16T12:45:19;101309.00;;;-13.51;53.46
46846;BME280;33947;46.804;134.252;2024-02-16T12:48:28;101299.06;;;-13.90;54.60
46846;BME280;33947;46.804;134.252;2024-02-16T12:51:36;101320.66;;;-14.19;55.04
46846;BME280;33947;46.804;134.252;2024-02-16T12:54:44;101316.25;;;-14.43;57.00
46846;BME280;33947;46.804;134.252;2024-02-16T12:57:52;101312.63;;;-14.34;56.60
46846;BME280;33947;46.804;134.252;2024-02-16T13:00:59;101314.66;;;-14.30;56.34
46846;BME280;33947;46.804;134.252;2024-02-16T13:04:17;101306.81;;;-14.11;55.92
46846;BME280;33947;46.804;134.252;2024-02-16T13:07:27;101304.38;;;-14.20;56.26
46846;BME280;33947;46.804;134.252;2024-02-16T13:10:37;101300.72;;;-14.24;56.24
46846;BME280;33947;46.804;134.252;2024-02-16T13:13:46;101297.53;;;-14.31;56.45
46846;BME280;33947;46.804;134.252;2024-02-16T13:16:53;101294.00;;;-14.44;56.64
46846;BME280;33947;46.804;134.252;2024-02-16T13:20:00;101252.63;;;-15.22;58.09
46846;BME280;33947;46.804;134.252;2024-02-16T13:23:14;101282.03;;;-15.07;58.73
46846;BME280;33947;46.804;134.252;2024-02-16T13:26:23;101289.91;;;-15.25;58.77
46846;BME280;33947;46.804;134.252;2024-02-16T13:29:30;101295.25;;;-15.21;59.45
46846;BME280;33947;46.804;134.252;2024-02-16T13:32:41;101276.28;;;-14.84;58.23
46846;BME280;33947;46.804;134.252;2024-02-16T13:35:48;101265.69;;;-14.99;58.22
46846;BME280;33947;46.804;134.252;2024-02-16T13:38:56;101274.88;;;-15.01;58.62
46846;BME280;33947;46.804;134.252;2024-02-16T13:42:06;101250.75;;;-14.94;58.22
46846;BME280;33947;46.804;134.252;2024-02-16T13:45:17;101258.28;;;-14.96;58.68
46846;BME280;33947;46.804;134.252;2024-02-16T13:48:24;101259.16;;;-15.05;58.52
46846;BME280;33947;46.804;134.252;2024-02-16T13:51:32;101260.19;;;-15.03;59.20
46846;BME280;33947;46.804;134.252;2024-02-16T13:54:39;101261.97;;;-14.92;59.55
46846;BME280;33947;46.804;134.252;2024-02-16T13:57:48;101258.78;;;-14.79;59.16
46846;BME280;33947;46.804;134.252;2024-02-16T14:00:56;101257.09;;;-14.68;58.77
46846;BME280;33947;46.804;134.252;2024-02-16T14:04:03;101260.03;;;-14.63;59.30
46846;BME280;33947;46.804;134.252;2024-02-16T14:07:12;101264.25;;;-14.64;58.82
46846;BME280;33947;46.804;134.252;2024-02-16T14:10:19;101271.31;;;-14.72;59.21
46846;BME280;33947;46.804;134.252;2024-02-16T14:13:28;101256.72;;;-14.62;59.16
46846;BME280;33947;46.804;134.252;2024-02-16T14:16:35;101263.06;;;-14.47;58.53
46846;BME280;33947;46.804;134.252;2024-02-16T14:19:41;101264.81;;;-14.35;58.94
46846;BME280;33947;46.804;134.252;2024-02-16T14:22:49;101251.97;;;-14.15;57.65
46846;BME280;33947;46.804;134.252;2024-02-16T14:25:57;101256.25;;;-13.71;55.78
46846;BME280;33947;46.804;134.252;2024-02-16T14:29:06;101252.66;;;-13.28;54.79
46846;BME280;33947;46.804;134.252;2024-02-16T14:32:13;101249.91;;;-12.73;52.59
46846;BME280;33947;46.804;134.252;2024-02-16T14:35:20;101251.50;;;-12.40;51.22
46846;BME280;33947;46.804;134.252;2024-02-16T14:38:28;101222.16;;;-12.20;50.14
46846;BME280;33947;46.804;134.252;2024-02-16T14:41:35;101257.63;;;-12.14;49.64
46846;BME280;33947;46.804;134.252;2024-02-16T14:44:43;101255.16;;;-12.24;50.08
46846;BME280;33947;46.804;134.252;2024-02-16T14:47:53;101255.25;;;-11.99;49.67
46846;BME280;33947;46.804;134.252;2024-02-16T14:51:01;101244.13;;;-12.23;50.03
46846;BME280;33947;46.804;134.252;2024-02-16T14:54:08;101259.41;;;-12.25;50.77
46846;BME280;33947;46.804;134.252;2024-02-16T14:57:15;101259.03;;;-12.77;52.44
46846;BME280;33947;46.804;134.252;2024-02-16T15:00:26;101254.97;;;-13.09;53.38
46846;BME280;33947;46.804;134.252;2024-02-16T15:03:36;101249.41;;;-13.38;54.90
46846;BME280;33947;46.804;134.252;2024-02-16T15:06:43;101264.34;;;-13.32;55.16
46846;BME280;33947;46.804;134.252;2024-02-16T15:09:50;101264.16;;;-13.68;56.14
46846;BME280;33947;46.804;134.252;2024-02-16T15:12:57;101235.97;;;-14.12;56.67
46846;BME280;33947;46.804;134.252;2024-02-16T15:16:07;101260.22;;;-13.74;55.92
46846;BME280;33947;46.804;134.252;2024-02-16T15:19:14;101262.84;;;-13.62;55.99
46846;BME280;33947;46.804;134.252;2024-02-16T15:22:21;101253.56;;;-13.72;55.30
46846;BME280;33947;46.804;134.252;2024-02-16T15:25:38;101256.41;;;-13.80;55.59
46846;BME280;33947;46.804;134.252;2024-02-16T15:28:48;101257.84;;;-13.16;54.08
46846;BME280;33947;46.804;134.252;2024-02-16T15:31:58;101217.22;;;-12.88;51.98
46846;BME280;33947;46.804;134.252;2024-02-16T15:35:06;101248.03;;;-12.16;50.85
46846;BME280;33947;46.804;134.252;2024-02-16T15:38:13;101248.72;;;-11.70;48.71
46846;BME280;33947;46.804;134.252;2024-02-16T15:41:20;101250.00;;;-11.26;47.57
46846;BME280;33947;46.804;134.252;2024-02-16T15:44:27;101223.34;;;-11.28;46.22
46846;BME280;33947;46.804;134.252;2024-02-16T15:47:36;101254.81;;;-11.30;47.14
46846;BME280;33947;46.804;134.252;2024-02-16T15:50:43;101257.03;;;-11.49;46.95
46846;BME280;33947;46.804;134.252;2024-02-16T15:53:52;101247.66;;;-11.23;47.15
46846;BME280;33947;46.804;134.252;2024-02-16T15:57:00;101241.56;;;-11.11;46.36